createdAt,value
2018-11-26T00:00:35.892Z,61.37
2018-11-26T00:03:10.201Z,67.97
2018-11-26T00:05:39.508Z,66.93
2018-11-26T00:08:12.140Z,66.83
2018-11-26T00:12:00.402Z,58.43
2018-11-26T00:14:28.819Z,63.33
2018-11-26T00:16:57.127Z,63.83
2018-11-26T00:19:25.596Z,67.97
2018-11-26T00:21:53.978Z,70.03
2018-11-26T00:24:22.199Z,62.63
2018-11-26T00:26:50.532Z,69.23
2018-11-26T00:29:18.813Z,62.80
2018-11-26T00:31:47.098Z,61.97
2018-11-26T00:34:16.735Z,60.53
2018-11-26T00:36:45.003Z,71.93
2018-11-26T00:39:13.472Z,64.83
2018-11-26T00:41:41.912Z,70.40
2018-11-26T00:44:10.326Z,69.27
2018-11-26T00:46:38.663Z,62.90
2018-11-26T00:49:06.939Z,67.03
2018-11-26T00:51:35.333Z,71.47
2018-11-26T00:54:03.696Z,70.93
2018-11-26T00:56:31.953Z,64.90
2018-11-26T00:59:00.316Z,68.77
2018-11-26T01:01:28.604Z,73.53
2018-11-26T01:03:57.003Z,63.23
2018-11-26T01:06:25.585Z,72.07
2018-11-26T01:08:53.927Z,72.70
2018-11-26T01:11:22.185Z,67.60
2018-11-26T01:13:50.537Z,70.63
2018-11-26T01:16:18.840Z,88.53
2018-11-26T01:18:47.372Z,70.20
2018-11-26T01:21:15.631Z,68.10
2018-11-26T01:23:43.879Z,71.20
2018-11-26T01:26:12.259Z,66.70
2018-11-26T01:28:40.579Z,71.47
2018-11-26T01:31:08.921Z,68.03
2018-11-26T01:33:37.117Z,70.37
2018-11-26T01:36:05.522Z,71.70
2018-11-26T01:38:33.828Z,69.70
2018-11-26T01:41:02.187Z,75.33
2018-11-26T01:43:30.503Z,66.30
2018-11-26T01:45:58.768Z,70.07
2018-11-26T01:48:27.150Z,61.27
2018-11-26T01:50:55.340Z,73.40
2018-11-26T01:53:23.780Z,77.13
2018-11-26T01:55:52.203Z,67.37
2018-11-26T01:58:20.464Z,64.53
2018-11-26T02:00:48.907Z,71.10
2018-11-26T02:03:17.433Z,63.43
2018-11-26T02:05:45.750Z,68.37
2018-11-26T02:08:14.150Z,67.97
2018-11-26T02:10:42.472Z,66.50
2018-11-26T02:13:10.834Z,68.37
2018-11-26T02:15:41.404Z,67.87
2018-11-26T02:18:10.384Z,68.07
2018-11-26T02:20:38.688Z,72.10
2018-11-26T02:23:07.401Z,63.20
2018-11-26T02:25:35.792Z,60.00
2018-11-26T02:28:04.272Z,67.53
2018-11-26T02:30:33.056Z,70.43
2018-11-26T02:33:01.413Z,68.63
2018-11-26T02:35:29.929Z,64.47
2018-11-26T02:37:59.455Z,62.63
2018-11-26T02:40:31.042Z,61.53
2018-11-26T02:42:59.638Z,69.57
2018-11-26T02:45:28.960Z,65.60
2018-11-26T02:47:57.671Z,69.37
2018-11-26T02:50:26.212Z,68.70
2018-11-26T02:52:55.295Z,65.67
2018-11-26T02:55:23.851Z,70.47
2018-11-26T02:57:52.179Z,62.50
2018-11-26T03:00:21.255Z,75.53
2018-11-26T03:02:49.845Z,74.17
2018-11-26T03:05:25.517Z,74.00
2018-11-26T03:07:54.235Z,70.67
2018-11-26T03:10:23.107Z,66.60
2018-11-26T03:12:51.957Z,66.20
2018-11-26T03:15:20.393Z,71.83
2018-11-26T03:17:48.967Z,73.83
2018-11-26T03:20:17.365Z,77.83
2018-11-26T03:22:45.751Z,83.23
2018-11-26T03:25:14.257Z,69.90
2018-11-26T03:27:42.890Z,74.37
2018-11-26T03:30:18.006Z,83.47
2018-11-26T03:32:47.011Z,70.00
2018-11-26T03:35:15.338Z,77.47
2018-11-26T03:37:43.872Z,90.10
2018-11-26T03:40:13.594Z,84.30
2018-11-26T03:42:42.760Z,78.30
2018-11-26T03:45:14.695Z,93.17
2018-11-26T03:47:43.322Z,93.27
2018-11-26T03:50:13.042Z,88.33
2018-11-26T03:52:43.007Z,81.07
2018-11-26T03:55:12.319Z,92.70
2018-11-26T03:57:41.123Z,94.20
2018-11-26T04:00:13.396Z,84.13
2018-11-26T04:02:42.060Z,96.87
2018-11-26T04:05:11.255Z,90.67
2018-11-26T04:07:39.884Z,101.30
2018-11-26T04:10:11.411Z,103.70
2018-11-26T04:12:40.409Z,105.27
2018-11-26T04:15:11.234Z,93.80
2018-11-26T04:17:41.666Z,98.03
2018-11-26T04:20:10.298Z,100.97
2018-11-26T04:22:38.923Z,94.07
2018-11-26T04:25:08.575Z,104.50
2018-11-26T04:27:36.989Z,102.60
2018-11-26T04:30:08.332Z,107.93
2018-11-26T04:32:37.190Z,105.73
2018-11-26T04:35:06.244Z,104.17
2018-11-26T04:37:34.652Z,117.13
2018-11-26T04:40:03.051Z,93.37
2018-11-26T04:42:31.471Z,108.40
2018-11-26T04:44:59.829Z,105.13
2018-11-26T04:47:28.088Z,105.70
2018-11-26T04:49:56.500Z,114.77
2018-11-26T04:52:24.758Z,97.40
2018-11-26T04:54:53.056Z,98.40
2018-11-26T04:57:21.428Z,99.63
2018-11-26T04:59:50.591Z,105.53
2018-11-26T05:02:18.938Z,97.77
2018-11-26T05:04:47.283Z,112.33
2018-11-26T05:07:15.646Z,107.37
2018-11-26T05:09:43.839Z,104.37
2018-11-26T05:12:12.194Z,113.67
2018-11-26T05:14:40.449Z,110.23
2018-11-26T05:17:08.823Z,118.93
2018-11-26T05:19:37.094Z,116.60
2018-11-26T05:22:05.699Z,119.73
2018-11-26T05:24:34.098Z,115.93
2018-11-26T05:27:02.371Z,121.93
2018-11-26T05:29:30.607Z,119.33
2018-11-26T05:31:59.085Z,117.03
2018-11-26T05:34:27.405Z,114.50
2018-11-26T05:36:57.971Z,125.00
2018-11-26T05:39:26.784Z,115.87
2018-11-26T05:41:55.381Z,121.03
2018-11-26T05:44:24.105Z,116.40
2018-11-26T05:46:53.117Z,125.50
2018-11-26T05:49:22.921Z,117.40
2018-11-26T05:51:50.929Z,113.70
2018-11-26T05:54:19.329Z,119.23
2018-11-26T05:56:48.351Z,132.57
2018-11-26T05:59:16.681Z,124.87
2018-11-26T06:01:45.216Z,106.37
2018-11-26T06:04:13.416Z,127.40
2018-11-26T06:06:41.627Z,110.87
2018-11-26T06:09:10.989Z,116.00
2018-11-26T06:11:40.445Z,111.10
2018-11-26T06:14:08.674Z,116.87
2018-11-26T06:16:37.411Z,129.43
2018-11-26T06:19:05.816Z,118.47
2018-11-26T06:21:34.040Z,131.43
2018-11-26T06:24:02.370Z,126.03
2018-11-26T06:26:30.673Z,124.07
2018-11-26T06:28:58.868Z,123.37
2018-11-26T06:31:27.162Z,118.73
2018-11-26T06:33:55.361Z,131.90
2018-11-26T06:36:23.534Z,103.40
2018-11-26T06:38:51.837Z,125.17
2018-11-26T06:41:20.297Z,133.77
2018-11-26T06:43:48.496Z,123.83
2018-11-26T06:46:16.697Z,133.40
2018-11-26T06:48:49.962Z,140.87
2018-11-26T06:51:18.264Z,124.37
2018-11-26T06:53:47.607Z,115.40
2018-11-26T06:56:15.800Z,118.70
2018-11-26T06:58:44.053Z,120.63
2018-11-26T07:01:12.559Z,119.77
2018-11-26T07:03:40.831Z,124.27
2018-11-26T07:06:09.129Z,142.23
2018-11-26T07:08:37.522Z,125.47
2018-11-26T07:11:06.126Z,130.50
2018-11-26T07:13:34.359Z,144.50
2018-11-26T07:16:02.652Z,130.83
2018-11-26T07:18:30.919Z,125.97
2018-11-26T07:20:59.220Z,125.70
2018-11-26T07:23:27.446Z,118.53
2018-11-26T07:25:55.888Z,129.37
2018-11-26T07:28:24.092Z,142.83
2018-11-26T07:30:52.264Z,139.63
2018-11-26T07:33:20.681Z,125.37
2018-11-26T07:35:48.843Z,126.50
2018-11-26T07:38:17.131Z,126.43
2018-11-26T07:40:45.388Z,120.33
2018-11-26T07:43:14.198Z,116.17
2018-11-26T07:45:42.432Z,128.50
2018-11-26T07:48:11.872Z,132.77
2018-11-26T07:50:40.187Z,131.93
2018-11-26T07:53:10.208Z,111.53
2018-11-26T07:55:39.720Z,118.97
2018-11-26T07:58:08.003Z,134.87
2018-11-26T08:00:36.270Z,132.80
2018-11-26T08:03:04.869Z,126.67
2018-11-26T08:05:33.064Z,117.03
2018-11-26T08:08:01.461Z,113.70
2018-11-26T08:10:29.665Z,128.40
2018-11-26T08:12:57.976Z,105.83
2018-11-26T08:15:27.576Z,116.10
2018-11-26T08:17:55.983Z,111.17
2018-11-26T08:20:24.226Z,110.43
2018-11-26T08:22:52.404Z,111.17
2018-11-26T08:25:21.745Z,110.87
2018-11-26T08:27:50.560Z,111.60
2018-11-26T08:30:24.454Z,107.10
2018-11-26T08:32:58.175Z,104.37
2018-11-26T08:35:26.713Z,121.00
2018-11-26T08:38:01.318Z,112.67
2018-11-26T08:40:30.868Z,108.73
2018-11-26T08:43:15.304Z,98.17
2018-11-26T08:45:52.106Z,105.77
2018-11-26T08:48:25.513Z,94.37
2018-11-26T08:50:54.945Z,102.33
2018-11-26T08:53:23.805Z,109.80
2018-11-26T08:55:52.186Z,99.33
2018-11-26T08:58:20.625Z,106.40
2018-11-26T09:00:54.365Z,98.20
2018-11-26T09:03:22.933Z,100.43
2018-11-26T09:05:59.973Z,103.60
2018-11-26T09:08:29.671Z,92.43
2018-11-26T09:10:58.819Z,90.97
2018-11-26T09:13:27.847Z,97.90
2018-11-26T09:15:56.468Z,106.73
2018-11-26T09:18:24.739Z,101.77
2018-11-26T09:20:53.288Z,101.47
2018-11-26T09:23:21.602Z,104.00
2018-11-26T09:25:49.966Z,103.97
2018-11-26T09:28:18.207Z,109.57
2018-11-26T09:30:46.533Z,103.07
2018-11-26T09:33:14.994Z,96.63
2018-11-26T09:35:44.077Z,100.37
2018-11-26T09:38:13.109Z,94.60
2018-11-26T09:40:41.589Z,108.03
2018-11-26T09:43:09.859Z,91.03
2018-11-26T09:45:40.459Z,92.30
2018-11-26T09:48:06.799Z,93.47
2018-11-26T09:50:35.178Z,91.60
2018-11-26T09:53:03.635Z,88.57
2018-11-26T09:55:32.073Z,90.13
2018-11-26T09:58:01.474Z,86.03
2018-11-26T10:00:31.968Z,84.57
2018-11-26T10:03:02.550Z,84.97
2018-11-26T10:05:31.131Z,86.50
2018-11-26T10:08:00.877Z,85.37
2018-11-26T10:10:30.166Z,82.00
2018-11-26T10:12:58.632Z,80.17
2018-11-26T10:15:27.899Z,78.97
2018-11-26T10:17:56.527Z,87.90
2018-11-26T10:20:24.921Z,81.80
2018-11-26T10:22:54.804Z,82.80
2018-11-26T10:25:23.707Z,84.67
2018-11-26T10:27:52.081Z,78.17
2018-11-26T10:30:23.248Z,84.67
2018-11-26T10:32:52.111Z,87.93
2018-11-26T10:35:20.866Z,79.83
2018-11-26T10:37:49.315Z,72.53
2018-11-26T10:40:23.964Z,83.13
2018-11-26T10:42:52.430Z,75.00
2018-11-26T10:45:22.683Z,81.20
2018-11-26T10:47:51.169Z,81.37
2018-11-26T10:50:21.695Z,84.27
2018-11-26T10:52:55.473Z,82.20
2018-11-26T10:55:29.331Z,80.53
2018-11-26T10:57:57.945Z,83.53
2018-11-26T11:00:31.890Z,78.83
2018-11-26T11:03:00.453Z,72.87
2018-11-26T11:05:29.053Z,71.87
2018-11-26T11:07:57.567Z,72.63
2018-11-26T11:10:30.885Z,68.23
2018-11-26T11:12:59.448Z,71.60
2018-11-26T11:15:28.049Z,70.03
2018-11-26T11:17:57.357Z,64.43
2018-11-26T11:20:27.471Z,66.93
2018-11-26T11:22:55.922Z,72.27
2018-11-26T11:25:26.728Z,68.67
2018-11-26T11:27:56.322Z,64.60
2018-11-26T11:30:28.963Z,70.53
2018-11-26T11:32:57.603Z,59.80
2018-11-26T11:35:26.186Z,64.43
2018-11-26T11:37:55.978Z,58.60
2018-11-26T11:40:29.752Z,60.20
2018-11-26T11:43:00.079Z,64.63
2018-11-26T11:45:30.188Z,60.70
2018-11-26T11:47:59.335Z,67.87
2018-11-26T11:50:28.730Z,61.07
2018-11-26T11:53:00.002Z,62.20
2018-11-26T11:55:28.467Z,66.70
2018-11-26T11:57:58.865Z,60.50
2018-11-26T12:00:35.439Z,56.53
2018-11-26T12:03:10.808Z,66.30
2018-11-26T12:05:39.193Z,56.33
2018-11-26T12:08:08.258Z,59.07
2018-11-26T12:10:36.741Z,54.57
2018-11-26T12:13:06.983Z,63.10
2018-11-26T12:15:37.123Z,61.83
2018-11-26T12:18:06.658Z,66.00
2018-11-26T12:20:35.694Z,65.93
2018-11-26T12:23:04.306Z,69.40
2018-11-26T12:25:32.669Z,66.53
2018-11-26T12:28:01.197Z,54.80
2018-11-26T12:30:31.735Z,58.13
2018-11-26T12:33:00.121Z,57.83
2018-11-26T12:35:28.510Z,64.43
2018-11-26T12:37:56.862Z,62.23
2018-11-26T12:40:26.088Z,58.50
2018-11-26T12:42:57.220Z,61.03
2018-11-26T12:45:28.397Z,57.67
2018-11-26T12:47:57.182Z,62.50
2018-11-26T12:50:25.694Z,59.73
2018-11-26T12:52:54.454Z,55.23
2018-11-26T12:55:23.860Z,53.03
2018-11-26T12:57:58.436Z,56.07
2018-11-26T13:00:28.476Z,54.33
2018-11-26T13:03:01.097Z,57.73
2018-11-26T13:05:29.561Z,59.57
2018-11-26T13:07:57.818Z,70.13
2018-11-26T13:10:26.256Z,52.43
2018-11-26T13:12:54.594Z,60.03
2018-11-26T13:15:25.136Z,60.30
2018-11-26T13:17:54.240Z,64.90
2018-11-26T13:20:25.020Z,56.53
2018-11-26T13:22:54.062Z,58.37
2018-11-26T13:25:25.982Z,53.50
2018-11-26T13:27:57.354Z,53.90
2018-11-26T13:30:28.650Z,60.10
2018-11-26T13:32:58.982Z,53.43
2018-11-26T13:35:27.425Z,56.83
2018-11-26T13:37:55.916Z,56.60
2018-11-26T13:40:24.290Z,54.07
2018-11-26T13:42:52.864Z,56.93
2018-11-26T13:45:26.232Z,60.20
2018-11-26T13:47:54.712Z,61.53
2018-11-26T13:50:26.987Z,59.30
2018-11-26T13:52:58.865Z,64.07
2018-11-26T13:55:28.299Z,59.20
2018-11-26T13:57:59.116Z,59.73
2018-11-26T14:00:29.442Z,57.20
2018-11-26T14:02:57.728Z,59.20
2018-11-26T14:05:26.247Z,64.90
2018-11-26T14:07:54.708Z,61.40
2018-11-26T14:10:25.831Z,65.20
2018-11-26T14:13:15.678Z,57.73
2018-11-26T14:15:44.061Z,66.53
2018-11-26T14:18:12.481Z,63.30
2018-11-26T14:20:40.807Z,71.40
2018-11-26T14:23:09.226Z,64.77
2018-11-26T14:25:38.238Z,69.87
2018-11-26T14:28:06.698Z,62.53
2018-11-26T14:30:35.036Z,72.97
2018-11-26T14:33:03.489Z,67.83
2018-11-26T14:35:31.921Z,83.27
2018-11-26T14:38:02.862Z,68.57
2018-11-26T14:40:39.595Z,72.90
2018-11-26T14:43:08.161Z,65.93
2018-11-26T14:45:36.842Z,66.57
2018-11-26T14:48:05.909Z,79.37
2018-11-26T14:50:34.279Z,71.60
2018-11-26T14:53:05.061Z,71.63
2018-11-26T14:55:36.431Z,68.90
2018-11-26T14:58:05.145Z,67.87
2018-11-26T15:00:34.495Z,64.63
2018-11-26T15:03:03.053Z,77.57
2018-11-26T15:05:31.725Z,79.93
2018-11-26T15:08:00.289Z,72.80
2018-11-26T15:10:28.748Z,68.87
2018-11-26T15:12:57.410Z,77.70
2018-11-26T15:15:26.738Z,75.73
2018-11-26T15:17:55.258Z,75.60
2018-11-26T15:20:28.131Z,72.13
2018-11-26T15:22:58.798Z,78.70
2018-11-26T15:25:32.853Z,69.03
2018-11-26T15:28:06.632Z,75.07
2018-11-26T15:30:35.813Z,69.20
2018-11-26T15:33:05.841Z,74.27
2018-11-26T15:35:34.677Z,81.07
2018-11-26T15:38:04.487Z,81.65
2018-11-26T15:40:33.401Z,78.30
2018-11-26T15:43:02.092Z,80.90
2018-11-26T15:45:30.769Z,78.37
2018-11-26T15:48:02.270Z,70.47
2018-11-26T15:50:31.730Z,79.63
2018-11-26T15:53:00.774Z,76.00
2018-11-26T15:55:29.906Z,68.77
2018-11-26T15:57:59.227Z,76.27
2018-11-26T16:00:28.717Z,76.73
2018-11-26T16:02:58.060Z,80.00
2018-11-26T16:05:29.622Z,74.63
2018-11-26T16:08:03.438Z,74.03
2018-11-26T16:10:32.684Z,75.80
2018-11-26T16:13:02.968Z,80.67
2018-11-26T16:15:40.802Z,81.13
2018-11-26T16:18:15.218Z,77.33
2018-11-26T16:20:45.521Z,90.93
2018-11-26T16:23:14.282Z,93.03
2018-11-26T16:25:45.942Z,86.80
2018-11-26T16:28:17.704Z,88.73
2018-11-26T16:30:46.395Z,79.67
2018-11-26T16:33:15.208Z,90.13
2018-11-26T16:35:49.114Z,83.67
2018-11-26T16:38:18.359Z,87.53
2018-11-26T16:40:46.837Z,89.80
2018-11-26T16:43:15.397Z,80.27
2018-11-26T16:45:44.095Z,88.47
2018-11-26T16:48:12.727Z,79.93
2018-11-26T16:50:41.477Z,83.57
2018-11-26T16:53:10.757Z,87.47
2018-11-26T16:55:39.422Z,77.70
2018-11-26T16:58:08.833Z,86.80
2018-11-26T17:00:37.880Z,83.00
2018-11-26T17:03:06.604Z,76.03
2018-11-26T17:05:38.166Z,87.20
2018-11-26T17:08:12.736Z,89.17
2018-11-26T17:10:42.946Z,83.13
2018-11-26T17:13:14.510Z,74.57
2018-11-26T17:15:43.169Z,82.20
2018-11-26T17:18:12.340Z,79.30
2018-11-26T17:20:41.587Z,74.97
2018-11-26T17:23:11.307Z,78.20
2018-11-26T17:25:40.969Z,71.63
2018-11-26T17:28:10.343Z,76.70
2018-11-26T17:30:40.207Z,71.33
2018-11-26T17:33:11.546Z,69.97
2018-11-26T17:35:39.969Z,67.37
2018-11-26T17:38:12.788Z,65.43
2018-11-26T17:40:41.198Z,75.00
2018-11-26T17:43:13.594Z,76.33
2018-11-26T17:45:42.024Z,76.40
2018-11-26T17:48:10.424Z,68.50
2018-11-26T17:50:41.406Z,74.03
2018-11-26T17:53:14.792Z,66.37
2018-11-26T17:55:55.506Z,63.03
2018-11-26T17:58:25.819Z,60.63
2018-11-26T18:01:05.432Z,58.20
2018-11-26T18:03:33.743Z,64.07
2018-11-26T18:06:02.055Z,62.83
2018-11-26T18:08:30.395Z,61.97
2018-11-26T18:10:58.705Z,58.83
2018-11-26T18:13:26.985Z,59.30
2018-11-26T18:15:55.390Z,61.47
2018-11-26T18:18:23.968Z,62.00
2018-11-26T18:20:52.079Z,60.43
2018-11-26T18:23:20.493Z,61.97
2018-11-26T18:25:48.933Z,63.27
2018-11-26T18:28:17.836Z,56.63
2018-11-26T18:30:49.997Z,54.90
2018-11-26T18:33:18.489Z,59.53
2018-11-26T18:35:47.955Z,55.93
2018-11-26T18:38:17.890Z,59.13
2018-11-26T18:40:50.372Z,60.37
2018-11-26T18:43:19.092Z,57.07
2018-11-26T18:45:47.552Z,53.00
2018-11-26T18:48:16.440Z,59.50
2018-11-26T18:50:45.300Z,53.73
2018-11-26T18:53:14.117Z,54.70
2018-11-26T18:55:43.137Z,55.80
2018-11-26T18:58:13.136Z,51.83
2018-11-26T19:00:48.740Z,52.10
2018-11-26T19:03:17.743Z,55.27
2018-11-26T19:05:49.315Z,52.20
2018-11-26T19:08:18.919Z,52.80
2018-11-26T19:10:58.787Z,58.17
2018-11-26T19:13:48.947Z,54.13
2018-11-26T19:16:21.439Z,54.43
2018-11-26T19:18:50.071Z,58.47
2018-11-26T19:21:19.387Z,54.50
2018-11-26T19:23:48.028Z,54.57
2018-11-26T19:26:17.520Z,56.80
2018-11-26T19:28:46.364Z,52.77
2018-11-26T19:31:29.862Z,56.00
2018-11-26T19:33:59.351Z,60.00
2018-11-26T19:36:36.386Z,55.70
2018-11-26T19:39:08.450Z,58.57
2018-11-26T19:41:37.574Z,61.07
2018-11-26T19:44:08.150Z,54.27
2018-11-26T19:46:36.821Z,54.83
2018-11-26T19:49:05.426Z,56.00
2018-11-26T19:51:35.059Z,55.83
2018-11-26T19:54:04.854Z,62.40
2018-11-26T19:56:33.448Z,60.00
2018-11-26T19:59:02.137Z,61.00
2018-11-26T20:01:31.641Z,61.57
2018-11-26T20:04:15.247Z,60.30
2018-11-26T20:06:43.697Z,61.13
2018-11-26T20:09:12.179Z,58.53
2018-11-26T20:11:40.835Z,57.57
2018-11-26T20:14:21.205Z,60.60
2018-11-26T20:16:44.071Z,61.00
2018-11-26T20:19:12.520Z,62.77
2018-11-26T20:21:41.188Z,61.47
2018-11-26T20:24:10.124Z,54.97
2018-11-26T20:26:38.467Z,59.67
2018-11-26T20:29:08.797Z,59.27
2018-11-26T20:31:37.337Z,58.37
2018-11-26T20:34:07.299Z,56.83
2018-11-26T20:36:35.872Z,58.03
2018-11-26T20:39:08.094Z,56.57
2018-11-26T20:41:37.116Z,57.27
2018-11-26T20:44:07.326Z,57.10
2018-11-26T20:46:36.507Z,64.30
2018-11-26T20:49:07.449Z,55.43
2018-11-26T20:51:36.372Z,55.47
2018-11-26T20:54:05.471Z,60.93
2018-11-26T20:56:34.765Z,56.97
2018-11-26T20:59:03.373Z,56.47
2018-11-26T21:01:31.754Z,52.03
2018-11-26T21:04:00.941Z,50.00
2018-11-26T21:06:29.525Z,57.10
2018-11-26T21:08:58.121Z,60.97
2018-11-26T21:11:26.609Z,56.83
2018-11-26T21:13:55.269Z,52.87
2018-11-26T21:16:24.697Z,58.30
2018-11-26T21:18:53.214Z,59.00
2018-11-26T21:21:22.277Z,58.43
2018-11-26T21:23:51.755Z,55.20
2018-11-26T21:26:20.664Z,52.33
2018-11-26T21:28:50.358Z,52.80
2018-11-26T21:31:18.881Z,53.27
2018-11-26T21:33:48.437Z,56.83
2018-11-26T21:36:17.608Z,58.17
2018-11-26T21:38:45.934Z,52.80
2018-11-26T21:41:14.425Z,56.47
2018-11-26T21:43:42.907Z,55.77
2018-11-26T21:46:16.686Z,60.47
2018-11-26T21:48:44.992Z,57.27
2018-11-26T21:51:13.471Z,59.13
2018-11-26T21:53:42.553Z,57.90
2018-11-26T21:56:10.819Z,59.10
2018-11-26T21:58:39.192Z,57.73
2018-11-26T22:01:09.451Z,54.30
2018-11-26T22:03:37.795Z,62.07
2018-11-26T22:06:06.446Z,59.13
2018-11-26T22:08:35.047Z,60.93
2018-11-26T22:11:03.498Z,54.90
2018-11-26T22:13:31.907Z,55.97
2018-11-26T22:16:00.195Z,57.33
2018-11-26T22:18:28.569Z,56.83
2018-11-26T22:20:56.974Z,57.63
2018-11-26T22:23:25.363Z,56.20
2018-11-26T22:25:53.684Z,59.53
2018-11-26T22:28:21.988Z,63.20
2018-11-26T22:30:50.344Z,62.50
2018-11-26T22:33:19.229Z,59.73
2018-11-26T22:35:47.631Z,58.20
2018-11-26T22:38:15.810Z,60.73
2018-11-26T22:40:44.318Z,62.03
2018-11-26T22:43:12.815Z,65.47
2018-11-26T22:45:41.242Z,64.23
2018-11-26T22:48:17.439Z,57.10
2018-11-26T22:50:46.329Z,65.43
2018-11-26T22:53:14.718Z,60.43
2018-11-26T22:55:44.314Z,64.23
2018-11-26T22:58:14.706Z,61.10
2018-11-26T23:00:50.997Z,63.00
2018-11-26T23:03:22.089Z,57.03
2018-11-26T23:05:50.531Z,72.47
2018-11-26T23:08:19.115Z,57.80
2018-11-26T23:10:47.696Z,62.10
2018-11-26T23:13:16.206Z,58.60
2018-11-26T23:15:45.409Z,61.20
2018-11-26T23:18:14.220Z,61.87
2018-11-26T23:20:42.741Z,53.73
2018-11-26T23:23:11.169Z,56.50
2018-11-26T23:25:39.769Z,60.57
2018-11-26T23:28:08.929Z,64.93
2018-11-26T23:30:37.446Z,63.57
2018-11-26T23:33:07.638Z,65.30
2018-11-26T23:35:36.174Z,57.50
2018-11-26T23:38:04.982Z,63.60
2018-11-26T23:40:34.513Z,64.53
2018-11-26T23:43:03.939Z,61.30
2018-11-26T23:45:32.563Z,63.93
2018-11-26T23:48:01.060Z,68.80
2018-11-26T23:50:29.646Z,67.00
2018-11-26T23:52:58.739Z,63.43
2018-11-26T23:55:27.319Z,65.53
2018-11-26T23:57:56.016Z,60.40
